sensor_id;sensor_type;location;lat;lon;timestamp;P1;durP1;ratioP1;P2;durP2;ratioP2
26620;SDS011;14253;44.840;10.444;2023-12-22T00:00:01;29.88;;;20.55;;
26620;SDS011;14253;44.840;10.444;2023-12-22T00:02:33;34.38;;;19.90;;
26620;SDS011;14253;44.840;10.444;2023-12-22T00:05:24;31.77;;;19.40;;
26620;SDS011;14253;44.840;10.444;2023-12-22T00:08:00;31.50;;;19.85;;
26620;SDS011;14253;44.840;10.444;2023-12-22T00:10:26;29.88;;;18.38;;
26620;SDS011;14253;44.840;10.444;2023-12-22T00:12:52;33.03;;;20.70;;
26620;SDS011;14253;44.840;10.444;2023-12-22T00:15:18;43.85;;;26.33;;
26620;SDS011;14253;44.840;10.444;2023-12-22T00:17:44;42.30;;;24.05;;
26620;SDS011;14253;44.840;10.444;2023-12-22T00:20:10;30.05;;;19.45;;
26620;SDS011;14253;44.840;10.444;2023-12-22T00:22:38;30.17;;;19.95;;
26620;SDS011;14253;44.840;10.444;2023-12-22T00:25:04;33.35;;;21.00;;
26620;SDS011;14253;44.840;10.444;2023-12-22T00:27:30;32.67;;;22.83;;
26620;SDS011;14253;44.840;10.444;2023-12-22T00:29:56;33.05;;;20.77;;
26620;SDS011;14253;44.840;10.444;2023-12-22T00:32:22;31.88;;;19.95;;
26620;SDS011;14253;44.840;10.444;2023-12-22T00:34:48;30.90;;;20.05;;
26620;SDS011;14253;44.840;10.444;2023-12-22T00:37:14;31.60;;;19.58;;
26620;SDS011;14253;44.840;10.444;2023-12-22T00:39:40;30.65;;;18.58;;
26620;SDS011;14253;44.840;10.444;2023-12-22T00:42:06;30.42;;;19.45;;
26620;SDS011;14253;44.840;10.444;2023-12-22T00:44:32;30.65;;;19.98;;
26620;SDS011;14253;44.840;10.444;2023-12-22T00:46:58;28.65;;;19.80;;
26620;SDS011;14253;44.840;10.444;2023-12-22T00:49:23;32.65;;;22.27;;
26620;SDS011;14253;44.840;10.444;2023-12-22T00:51:49;32.03;;;23.33;;
26620;SDS011;14253;44.840;10.444;2023-12-22T00:54:15;32.88;;;21.80;;
26620;SDS011;14253;44.840;10.444;2023-12-22T00:56:41;30.40;;;20.95;;
26620;SDS011;14253;44.840;10.444;2023-12-22T00:59:07;29.77;;;19.50;;
26620;SDS011;14253;44.840;10.444;2023-12-22T01:01:33;30.63;;;21.02;;
26620;SDS011;14253;44.840;10.444;2023-12-22T01:03:59;33.08;;;20.23;;
26620;SDS011;14253;44.840;10.444;2023-12-22T01:06:25;31.92;;;20.42;;
26620;SDS011;14253;44.840;10.444;2023-12-22T01:08:51;29.25;;;20.20;;
26620;SDS011;14253;44.840;10.444;2023-12-22T01:11:17;30.40;;;19.65;;
26620;SDS011;14253;44.840;10.444;2023-12-22T01:13:43;33.55;;;20.35;;
26620;SDS011;14253;44.840;10.444;2023-12-22T01:16:09;30.52;;;19.23;;
26620;SDS011;14253;44.840;10.444;2023-12-22T01:18:35;28.33;;;19.45;;
26620;SDS011;14253;44.840;10.444;2023-12-22T01:21:01;30.17;;;19.08;;
26620;SDS011;14253;44.840;10.444;2023-12-22T01:23:27;30.30;;;18.58;;
26620;SDS011;14253;44.840;10.444;2023-12-22T01:25:53;30.15;;;19.67;;
26620;SDS011;14253;44.840;10.444;2023-12-22T01:28:19;29.63;;;19.00;;
26620;SDS011;14253;44.840;10.444;2023-12-22T01:30:45;30.20;;;20.08;;
26620;SDS011;14253;44.840;10.444;2023-12-22T01:33:11;28.10;;;19.08;;
26620;SDS011;14253;44.840;10.444;2023-12-22T01:35:37;29.30;;;18.95;;
26620;SDS011;14253;44.840;10.444;2023-12-22T01:38:03;31.83;;;18.77;;
26620;SDS011;14253;44.840;10.444;2023-12-22T01:40:29;27.90;;;19.92;;
26620;SDS011;14253;44.840;10.444;2023-12-22T01:42:55;31.13;;;20.08;;
26620;SDS011;14253;44.840;10.444;2023-12-22T01:45:21;30.80;;;19.42;;
26620;SDS011;14253;44.840;10.444;2023-12-22T01:47:47;29.48;;;20.35;;
26620;SDS011;14253;44.840;10.444;2023-12-22T01:50:13;36.58;;;21.73;;
26620;SDS011;14253;44.840;10.444;2023-12-22T01:52:40;38.55;;;21.73;;
26620;SDS011;14253;44.840;10.444;2023-12-22T01:55:09;39.38;;;22.88;;
26620;SDS011;14253;44.840;10.444;2023-12-22T01:57:37;32.17;;;21.77;;
26620;SDS011;14253;44.840;10.444;2023-12-22T02:00:06;34.92;;;21.55;;
26620;SDS011;14253;44.840;10.444;2023-12-22T02:02:37;36.47;;;22.77;;
26620;SDS011;14253;44.840;10.444;2023-12-22T02:05:04;33.58;;;22.02;;
26620;SDS011;14253;44.840;10.444;2023-12-22T02:07:34;36.90;;;22.02;;
26620;SDS011;14253;44.840;10.444;2023-12-22T02:10:00;35.00;;;21.83;;
26620;SDS011;14253;44.840;10.444;2023-12-22T02:12:26;33.50;;;20.08;;
26620;SDS011;14253;44.840;10.444;2023-12-22T02:14:52;30.38;;;21.13;;
26620;SDS011;14253;44.840;10.444;2023-12-22T02:17:20;40.83;;;21.88;;
26620;SDS011;14253;44.840;10.444;2023-12-22T02:19:51;36.47;;;21.73;;
26620;SDS011;14253;44.840;10.444;2023-12-22T02:22:21;33.47;;;20.73;;
26620;SDS011;14253;44.840;10.444;2023-12-22T02:24:47;33.58;;;21.30;;
26620;SDS011;14253;44.840;10.444;2023-12-22T02:30:03;32.80;;;20.58;;
26620;SDS011;14253;44.840;10.444;2023-12-22T02:32:54;31.95;;;19.80;;
26620;SDS011;14253;44.840;10.444;2023-12-22T02:35:25;27.60;;;15.70;;
26620;SDS011;14253;44.840;10.444;2023-12-22T02:37:53;21.63;;;13.25;;
26620;SDS011;14253;44.840;10.444;2023-12-22T02:40:23;22.05;;;13.38;;
26620;SDS011;14253;44.840;10.444;2023-12-22T02:42:51;25.58;;;11.95;;
26620;SDS011;14253;44.840;10.444;2023-12-22T02:45:18;16.33;;;9.07;;
26620;SDS011;14253;44.840;10.444;2023-12-22T02:47:45;10.45;;;7.03;;
26620;SDS011;14253;44.840;10.444;2023-12-22T02:50:15;5.95;;;3.72;;
26620;SDS011;14253;44.840;10.444;2023-12-22T02:52:42;5.72;;;2.60;;
26620;SDS011;14253;44.840;10.444;2023-12-22T02:55:08;6.03;;;2.25;;
26620;SDS011;14253;44.840;10.444;2023-12-22T02:57:34;8.27;;;2.03;;
26620;SDS011;14253;44.840;10.444;2023-12-22T03:00:00;3.90;;;1.77;;
26620;SDS011;14253;44.840;10.444;2023-12-22T03:02:27;3.08;;;1.70;;
26620;SDS011;14253;44.840;10.444;2023-12-22T03:04:53;2.80;;;1.50;;
26620;SDS011;14253;44.840;10.444;2023-12-22T03:07:19;4.03;;;1.40;;
26620;SDS011;14253;44.840;10.444;2023-12-22T03:09:45;4.97;;;1.05;;
26620;SDS011;14253;44.840;10.444;2023-12-22T03:12:10;2.92;;;1.50;;
26620;SDS011;14253;44.840;10.444;2023-12-22T03:14:36;5.40;;;1.13;;
26620;SDS011;14253;44.840;10.444;2023-12-22T03:17:03;2.75;;;0.80;;
26620;SDS011;14253;44.840;10.444;2023-12-22T03:19:30;2.72;;;1.10;;
26620;SDS011;14253;44.840;10.444;2023-12-22T03:21:57;4.55;;;1.40;;
26620;SDS011;14253;44.840;10.444;2023-12-22T03:24:24;1.85;;;1.15;;
26620;SDS011;14253;44.840;10.444;2023-12-22T03:26:51;2.80;;;1.40;;
26620;SDS011;14253;44.840;10.444;2023-12-22T03:29:17;4.10;;;1.30;;
26620;SDS011;14253;44.840;10.444;2023-12-22T03:31:44;2.72;;;1.52;;
26620;SDS011;14253;44.840;10.444;2023-12-22T03:34:11;2.88;;;1.30;;
26620;SDS011;14253;44.840;10.444;2023-12-22T03:36:37;2.53;;;1.50;;
26620;SDS011;14253;44.840;10.444;2023-12-22T03:39:03;1.77;;;1.33;;
26620;SDS011;14253;44.840;10.444;2023-12-22T03:41:29;4.38;;;1.48;;
26620;SDS011;14253;44.840;10.444;2023-12-22T03:43:56;4.47;;;1.45;;
26620;SDS011;14253;44.840;10.444;2023-12-22T03:46:22;1.20;;;0.77;;
26620;SDS011;14253;44.840;10.444;2023-12-22T03:48:48;4.72;;;0.95;;
26620;SDS011;14253;44.840;10.444;2023-12-22T03:51:15;4.72;;;1.10;;
26620;SDS011;14253;44.840;10.444;2023-12-22T03:53:41;1.23;;;0.95;;
26620;SDS011;14253;44.840;10.444;2023-12-22T03:56:07;2.80;;;0.98;;
26620;SDS011;14253;44.840;10.444;2023-12-22T03:58:34;2.33;;;0.70;;
26620;SDS011;14253;44.840;10.444;2023-12-22T04:01:00;4.60;;;1.13;;
26620;SDS011;14253;44.840;10.444;2023-12-22T04:03:27;3.03;;;0.82;;
26620;SDS011;14253;44.840;10.444;2023-12-22T04:05:53;1.38;;;0.68;;
26620;SDS011;14253;44.840;10.444;2023-12-22T04:08:19;3.75;;;1.17;;
26620;SDS011;14253;44.840;10.444;2023-12-22T04:10:47;1.65;;;0.90;;
26620;SDS011;14253;44.840;10.444;2023-12-22T04:13:14;1.50;;;0.90;;
26620;SDS011;14253;44.840;10.444;2023-12-22T04:15:40;1.92;;;1.00;;
26620;SDS011;14253;44.840;10.444;2023-12-22T04:18:05;2.45;;;0.88;;
26620;SDS011;14253;44.840;10.444;2023-12-22T04:20:31;4.47;;;0.80;;
26620;SDS011;14253;44.840;10.444;2023-12-22T04:22:57;3.78;;;0.70;;
26620;SDS011;14253;44.840;10.444;2023-12-22T04:25:23;6.07;;;1.10;;
26620;SDS011;14253;44.840;10.444;2023-12-22T04:27:51;1.67;;;0.80;;
26620;SDS011;14253;44.840;10.444;2023-12-22T04:30:17;3.50;;;0.90;;
26620;SDS011;14253;44.840;10.444;2023-12-22T04:32:43;1.95;;;1.10;;
26620;SDS011;14253;44.840;10.444;2023-12-22T04:35:09;2.63;;;1.00;;
26620;SDS011;14253;44.840;10.444;2023-12-22T04:37:35;6.18;;;1.15;;
26620;SDS011;14253;44.840;10.444;2023-12-22T04:40:01;3.38;;;1.10;;
26620;SDS011;14253;44.840;10.444;2023-12-22T04:42:28;3.80;;;0.63;;
26620;SDS011;14253;44.840;10.444;2023-12-22T04:44:54;2.45;;;1.00;;
26620;SDS011;14253;44.840;10.444;2023-12-22T04:47:20;2.83;;;0.80;;
26620;SDS011;14253;44.840;10.444;2023-12-22T04:49:46;1.83;;;0.57;;
26620;SDS011;14253;44.840;10.444;2023-12-22T04:52:12;2.95;;;1.00;;
26620;SDS011;14253;44.840;10.444;2023-12-22T04:54:38;5.80;;;1.05;;
26620;SDS011;14253;44.840;10.444;2023-12-22T04:57:04;3.20;;;0.80;;
26620;SDS011;14253;44.840;10.444;2023-12-22T04:59:30;7.15;;;0.80;;
26620;SDS011;14253;44.840;10.444;2023-12-22T05:01:56;3.53;;;1.08;;
26620;SDS011;14253;44.840;10.444;2023-12-22T05:04:22;4.32;;;0.98;;
26620;SDS011;14253;44.840;10.444;2023-12-22T05:06:48;8.77;;;1.38;;
26620;SDS011;14253;44.840;10.444;2023-12-22T05:09:15;2.58;;;0.80;;
26620;SDS011;14253;44.840;10.444;2023-12-22T05:11:41;2.95;;;0.77;;
26620;SDS011;14253;44.840;10.444;2023-12-22T05:14:08;4.47;;;1.27;;
26620;SDS011;14253;44.840;10.444;2023-12-22T05:16:38;1.83;;;0.73;;
26620;SDS011;14253;44.840;10.444;2023-12-22T05:19:14;9.93;;;1.13;;
26620;SDS011;14253;44.840;10.444;2023-12-22T05:21:42;3.55;;;1.15;;
26620;SDS011;14253;44.840;10.444;2023-12-22T05:24:15;1.98;;;0.93;;
26620;SDS011;14253;44.840;10.444;2023-12-22T05:26:52;5.65;;;1.10;;
26620;SDS011;14253;44.840;10.444;2023-12-22T05:29:18;2.22;;;1.33;;
26620;SDS011;14253;44.840;10.444;2023-12-22T05:31:44;4.95;;;0.98;;
26620;SDS011;14253;44.840;10.444;2023-12-22T05:34:10;1.63;;;0.88;;
26620;SDS011;14253;44.840;10.444;2023-12-22T05:36:36;2.75;;;0.90;;
26620;SDS011;14253;44.840;10.444;2023-12-22T05:39:02;1.50;;;0.60;;
26620;SDS011;14253;44.840;10.444;2023-12-22T05:41:28;3.60;;;0.98;;
26620;SDS011;14253;44.840;10.444;2023-12-22T05:43:54;1.15;;;0.65;;
26620;SDS011;14253;44.840;10.444;2023-12-22T05:46:20;9.75;;;1.38;;
26620;SDS011;14253;44.840;10.444;2023-12-22T05:48:46;5.30;;;1.80;;
26620;SDS011;14253;44.840;10.444;2023-12-22T05:51:12;4.35;;;0.73;;
26620;SDS011;14253;44.840;10.444;2023-12-22T05:53:41;3.40;;;0.88;;
26620;SDS011;14253;44.840;10.444;2023-12-22T05:56:16;7.22;;;1.08;;
26620;SDS011;14253;44.840;10.444;2023-12-22T05:58:45;27.67;;;9.75;;
26620;SDS011;14253;44.840;10.444;2023-12-22T06:01:18;3.47;;;2.00;;
26620;SDS011;14253;44.840;10.444;2023-12-22T06:03:44;3.97;;;0.98;;
26620;SDS011;14253;44.840;10.444;2023-12-22T06:06:11;2.85;;;0.80;;
26620;SDS011;14253;44.840;10.444;2023-12-22T06:08:37;2.25;;;1.00;;
26620;SDS011;14253;44.840;10.444;2023-12-22T06:11:04;2.38;;;0.85;;
26620;SDS011;14253;44.840;10.444;2023-12-22T06:13:30;2.58;;;0.93;;
26620;SDS011;14253;44.840;10.444;2023-12-22T06:15:57;7.90;;;0.90;;
26620;SDS011;14253;44.840;10.444;2023-12-22T06:18:23;2.88;;;1.30;;
26620;SDS011;14253;44.840;10.444;2023-12-22T06:20:49;5.38;;;0.68;;
26620;SDS011;14253;44.840;10.444;2023-12-22T06:23:15;8.75;;;0.93;;
26620;SDS011;14253;44.840;10.444;2023-12-22T06:25:42;6.80;;;1.40;;
26620;SDS011;14253;44.840;10.444;2023-12-22T06:28:08;2.63;;;0.82;;
26620;SDS011;14253;44.840;10.444;2023-12-22T06:30:34;2.92;;;0.77;;
26620;SDS011;14253;44.840;10.444;2023-12-22T06:33:00;4.95;;;0.95;;
26620;SDS011;14253;44.840;10.444;2023-12-22T06:35:26;4.13;;;0.60;;
26620;SDS011;14253;44.840;10.444;2023-12-22T06:37:52;6.13;;;1.10;;
26620;SDS011;14253;44.840;10.444;2023-12-22T06:40:19;2.75;;;0.70;;
26620;SDS011;14253;44.840;10.444;2023-12-22T06:42:45;2.65;;;0.82;;
26620;SDS011;14253;44.840;10.444;2023-12-22T06:45:11;5.10;;;0.93;;
26620;SDS011;14253;44.840;10.444;2023-12-22T06:47:37;1.38;;;0.70;;
26620;SDS011;14253;44.840;10.444;2023-12-22T06:50:03;4.82;;;1.00;;
26620;SDS011;14253;44.840;10.444;2023-12-22T06:52:30;6.50;;;1.10;;
26620;SDS011;14253;44.840;10.444;2023-12-22T06:54:56;10.60;;;0.88;;
26620;SDS011;14253;44.840;10.444;2023-12-22T06:57:22;3.58;;;0.80;;
26620;SDS011;14253;44.840;10.444;2023-12-22T06:59:48;7.13;;;1.25;;
26620;SDS011;14253;44.840;10.444;2023-12-22T07:02:15;2.97;;;0.70;;
26620;SDS011;14253;44.840;10.444;2023-12-22T07:07:50;6.13;;;0.95;;
26620;SDS011;14253;44.840;10.444;2023-12-22T07:10:16;4.38;;;1.05;;
26620;SDS011;14253;44.840;10.444;2023-12-22T07:12:42;1.40;;;0.75;;
26620;SDS011;14253;44.840;10.444;2023-12-22T07:15:08;1.95;;;0.70;;
26620;SDS011;14253;44.840;10.444;2023-12-22T07:17:34;3.28;;;0.73;;
26620;SDS011;14253;44.840;10.444;2023-12-22T07:20:01;1.30;;;0.70;;
26620;SDS011;14253;44.840;10.444;2023-12-22T07:22:28;2.13;;;0.70;;
26620;SDS011;14253;44.840;10.444;2023-12-22T07:24:54;9.02;;;0.73;;
26620;SDS011;14253;44.840;10.444;2023-12-22T07:27:21;3.72;;;0.85;;
26620;SDS011;14253;44.840;10.444;2023-12-22T07:29:47;3.63;;;0.82;;
26620;SDS011;14253;44.840;10.444;2023-12-22T07:32:13;1.42;;;0.60;;
26620;SDS011;14253;44.840;10.444;2023-12-22T07:34:39;2.78;;;0.70;;
26620;SDS011;14253;44.840;10.444;2023-12-22T07:37:05;5.05;;;1.08;;
26620;SDS011;14253;44.840;10.444;2023-12-22T07:39:31;3.95;;;0.98;;
26620;SDS011;14253;44.840;10.444;2023-12-22T07:41:57;3.55;;;1.10;;
26620;SDS011;14253;44.840;10.444;2023-12-22T07:44:24;3.28;;;1.10;;
26620;SDS011;14253;44.840;10.444;2023-12-22T07:46:56;7.07;;;1.05;;
26620;SDS011;14253;44.840;10.444;2023-12-22T07:49:26;3.72;;;0.80;;
26620;SDS011;14253;44.840;10.444;2023-12-22T07:51:53;3.60;;;0.77;;
26620;SDS011;14253;44.840;10.444;2023-12-22T07:54:19;3.60;;;0.68;;
26620;SDS011;14253;44.840;10.444;2023-12-22T07:56:45;4.82;;;0.70;;
26620;SDS011;14253;44.840;10.444;2023-12-22T07:59:12;2.63;;;0.60;;
26620;SDS011;14253;44.840;10.444;2023-12-22T08:01:38;5.00;;;0.80;;
26620;SDS011;14253;44.840;10.444;2023-12-22T08:04:07;1.73;;;0.60;;
26620;SDS011;14253;44.840;10.444;2023-12-22T08:06:39;4.15;;;1.52;;
26620;SDS011;14253;44.840;10.444;2023-12-22T08:09:06;2.35;;;0.50;;
26620;SDS011;14253;44.840;10.444;2023-12-22T08:11:32;2.40;;;0.57;;
26620;SDS011;14253;44.840;10.444;2023-12-22T08:13:58;3.97;;;0.55;;
26620;SDS011;14253;44.840;10.444;2023-12-22T08:16:24;2.80;;;0.85;;
26620;SDS011;14253;44.840;10.444;2023-12-22T08:18:50;0.88;;;0.45;;
26620;SDS011;14253;44.840;10.444;2023-12-22T08:21:16;4.13;;;0.50;;
26620;SDS011;14253;44.840;10.444;2023-12-22T08:23:42;1.88;;;0.52;;
26620;SDS011;14253;44.840;10.444;2023-12-22T08:26:08;1.35;;;0.45;;
26620;SDS011;14253;44.840;10.444;2023-12-22T08:28:34;5.35;;;0.65;;
26620;SDS011;14253;44.840;10.444;2023-12-22T08:31:00;1.13;;;0.35;;
26620;SDS011;14253;44.840;10.444;2023-12-22T08:33:27;5.78;;;0.73;;
26620;SDS011;14253;44.840;10.444;2023-12-22T08:35:52;3.38;;;0.90;;
26620;SDS011;14253;44.840;10.444;2023-12-22T08:38:19;1.92;;;0.40;;
26620;SDS011;14253;44.840;10.444;2023-12-22T08:40:44;2.70;;;0.73;;
26620;SDS011;14253;44.840;10.444;2023-12-22T08:43:10;2.15;;;0.63;;
26620;SDS011;14253;44.840;10.444;2023-12-22T08:45:36;0.90;;;0.40;;
26620;SDS011;14253;44.840;10.444;2023-12-22T08:48:02;7.60;;;0.60;;
26620;SDS011;14253;44.840;10.444;2023-12-22T08:50:33;0.60;;;0.50;;
26620;SDS011;14253;44.840;10.444;2023-12-22T08:52:59;9.15;;;1.10;;
26620;SDS011;14253;44.840;10.444;2023-12-22T08:55:25;3.58;;;0.88;;
26620;SDS011;14253;44.840;10.444;2023-12-22T08:57:51;1.80;;;0.63;;
26620;SDS011;14253;44.840;10.444;2023-12-22T09:00:19;4.25;;;0.88;;
26620;SDS011;14253;44.840;10.444;2023-12-22T09:02:52;2.20;;;0.40;;
26620;SDS011;14253;44.840;10.444;2023-12-22T09:05:18;1.33;;;0.50;;
26620;SDS011;14253;44.840;10.444;2023-12-22T09:07:45;4.05;;;0.45;;
26620;SDS011;14253;44.840;10.444;2023-12-22T09:10:11;3.83;;;0.68;;
26620;SDS011;14253;44.840;10.444;2023-12-22T09:12:37;3.80;;;0.60;;
26620;SDS011;14253;44.840;10.444;2023-12-22T09:15:03;1.45;;;0.55;;
26620;SDS011;14253;44.840;10.444;2023-12-22T09:17:29;1.42;;;0.65;;
26620;SDS011;14253;44.840;10.444;2023-12-22T09:19:55;4.13;;;0.52;;
26620;SDS011;14253;44.840;10.444;2023-12-22T09:22:22;4.05;;;0.60;;
26620;SDS011;14253;44.840;10.444;2023-12-22T09:24:48;2.55;;;0.50;;
26620;SDS011;14253;44.840;10.444;2023-12-22T09:27:14;7.05;;;0.57;;
26620;SDS011;14253;44.840;10.444;2023-12-22T09:29:40;4.05;;;0.40;;
26620;SDS011;14253;44.840;10.444;2023-12-22T09:32:06;3.17;;;0.60;;
26620;SDS011;14253;44.840;10.444;2023-12-22T09:34:33;2.35;;;0.70;;
26620;SDS011;14253;44.840;10.444;2023-12-22T09:37:05;1.23;;;0.45;;
26620;SDS011;14253;44.840;10.444;2023-12-22T09:39:31;1.10;;;0.47;;
26620;SDS011;14253;44.840;10.444;2023-12-22T09:41:57;2.28;;;0.40;;
26620;SDS011;14253;44.840;10.444;2023-12-22T09:44:23;1.67;;;0.60;;
26620;SDS011;14253;44.840;10.444;2023-12-22T09:46:53;2.33;;;0.40;;
26620;SDS011;14253;44.840;10.444;2023-12-22T09:49:22;3.67;;;0.43;;
26620;SDS011;14253;44.840;10.444;2023-12-22T09:51:50;0.43;;;0.30;;
26620;SDS011;14253;44.840;10.444;2023-12-22T09:54:17;1.70;;;0.40;;
26620;SDS011;14253;44.840;10.444;2023-12-22T09:56:44;1.40;;;0.63;;
26620;SDS011;14253;44.840;10.444;2023-12-22T09:59:12;1.90;;;0.55;;
26620;SDS011;14253;44.840;10.444;2023-12-22T10:01:42;0.52;;;0.40;;
26620;SDS011;14253;44.840;10.444;2023-12-22T10:04:11;1.63;;;0.40;;
26620;SDS011;14253;44.840;10.444;2023-12-22T10:06:38;1.40;;;0.40;;
26620;SDS011;14253;44.840;10.444;2023-12-22T10:09:07;1.67;;;0.60;;
26620;SDS011;14253;44.840;10.444;2023-12-22T10:11:35;4.00;;;0.50;;
26620;SDS011;14253;44.840;10.444;2023-12-22T10:14:02;5.68;;;0.55;;
26620;SDS011;14253;44.840;10.444;2023-12-22T10:16:30;1.25;;;0.30;;
26620;SDS011;14253;44.840;10.444;2023-12-22T10:18:56;9.05;;;0.70;;
26620;SDS011;14253;44.840;10.444;2023-12-22T10:21:24;1.35;;;0.47;;
26620;SDS011;14253;44.840;10.444;2023-12-22T10:23:50;1.02;;;0.30;;
26620;SDS011;14253;44.840;10.444;2023-12-22T10:26:15;2.17;;;0.28;;
26620;SDS011;14253;44.840;10.444;2023-12-22T10:28:42;3.30;;;0.57;;
26620;SDS011;14253;44.840;10.444;2023-12-22T10:31:08;3.70;;;0.40;;
26620;SDS011;14253;44.840;10.444;2023-12-22T10:33:34;4.05;;;0.40;;
26620;SDS011;14253;44.840;10.444;2023-12-22T10:36:00;3.05;;;0.55;;
26620;SDS011;14253;44.840;10.444;2023-12-22T10:38:31;2.60;;;0.40;;
26620;SDS011;14253;44.840;10.444;2023-12-22T10:41:02;2.47;;;0.40;;
26620;SDS011;14253;44.840;10.444;2023-12-22T10:43:30;0.90;;;0.35;;
26620;SDS011;14253;44.840;10.444;2023-12-22T10:46:01;3.83;;;0.68;;
26620;SDS011;14253;44.840;10.444;2023-12-22T10:48:28;2.40;;;0.50;;
26620;SDS011;14253;44.840;10.444;2023-12-22T10:50:55;3.72;;;0.50;;
26620;SDS011;14253;44.840;10.444;2023-12-22T10:53:21;2.30;;;0.50;;
26620;SDS011;14253;44.840;10.444;2023-12-22T10:55:49;2.85;;;0.47;;
26620;SDS011;14253;44.840;10.444;2023-12-22T10:58:18;2.35;;;0.38;;
26620;SDS011;14253;44.840;10.444;2023-12-22T11:00:45;8.00;;;0.32;;
26620;SDS011;14253;44.840;10.444;2023-12-22T11:03:14;0.55;;;0.30;;
26620;SDS011;14253;44.840;10.444;2023-12-22T11:05:44;0.52;;;0.20;;
26620;SDS011;14253;44.840;10.444;2023-12-22T11:08:13;0.22;;;0.10;;
26620;SDS011;14253;44.840;10.444;2023-12-22T11:10:41;1.55;;;0.20;;
26620;SDS011;14253;44.840;10.444;2023-12-22T11:13:10;2.25;;;0.20;;
26620;SDS011;14253;44.840;10.444;2023-12-22T11:15:37;1.33;;;0.40;;
26620;SDS011;14253;44.840;10.444;2023-12-22T11:18:04;1.17;;;0.57;;
26620;SDS011;14253;44.840;10.444;2023-12-22T11:20:31;1.45;;;0.77;;
26620;SDS011;14253;44.840;10.444;2023-12-22T11:22:58;3.45;;;0.40;;
26620;SDS011;14253;44.840;10.444;2023-12-22T11:25:26;4.38;;;1.55;;
26620;SDS011;14253;44.840;10.444;2023-12-22T11:27:56;6.13;;;2.95;;
26620;SDS011;14253;44.840;10.444;2023-12-22T11:30:55;4.88;;;1.58;;
26620;SDS011;14253;44.840;10.444;2023-12-22T11:33:26;5.53;;;1.60;;
26620;SDS011;14253;44.840;10.444;2023-12-22T11:36:04;1.80;;;0.40;;
26620;SDS011;14253;44.840;10.444;2023-12-22T11:38:46;0.88;;;0.28;;
26620;SDS011;14253;44.840;10.444;2023-12-22T11:41:26;4.38;;;0.25;;
26620;SDS011;14253;44.840;10.444;2023-12-22T11:44:04;0.95;;;0.20;;
26620;SDS011;14253;44.840;10.444;2023-12-22T11:46:42;1.45;;;0.30;;
26620;SDS011;14253;44.840;10.444;2023-12-22T11:49:18;1.05;;;0.20;;
26620;SDS011;14253;44.840;10.444;2023-12-22T11:52:16;1.10;;;0.20;;
26620;SDS011;14253;44.840;10.444;2023-12-22T11:55:01;0.55;;;0.40;;
26620;SDS011;14253;44.840;10.444;2023-12-22T11:57:37;1.88;;;0.43;;
26620;SDS011;14253;44.840;10.444;2023-12-22T12:00:47;2.85;;;0.68;;
26620;SDS011;14253;44.840;10.444;2023-12-22T12:03:16;0.60;;;0.50;;
26620;SDS011;14253;44.840;10.444;2023-12-22T12:08:49;0.80;;;0.40;;
26620;SDS011;14253;44.840;10.444;2023-12-22T12:14:33;0.22;;;0.22;;
26620;SDS011;14253;44.840;10.444;2023-12-22T12:17:15;5.75;;;0.40;;
26620;SDS011;14253;44.840;10.444;2023-12-22T12:19:51;3.10;;;0.50;;
26620;SDS011;14253;44.840;10.444;2023-12-22T12:22:28;1.77;;;0.20;;
26620;SDS011;14253;44.840;10.444;2023-12-22T12:25:09;1.17;;;0.30;;
26620;SDS011;14253;44.840;10.444;2023-12-22T12:27:47;0.63;;;0.20;;
26620;SDS011;14253;44.840;10.444;2023-12-22T12:30:25;0.40;;;0.15;;
26620;SDS011;14253;44.840;10.444;2023-12-22T12:33:09;1.65;;;0.20;;
26620;SDS011;14253;44.840;10.444;2023-12-22T12:35:47;4.53;;;0.25;;
26620;SDS011;14253;44.840;10.444;2023-12-22T12:38:43;4.07;;;0.52;;
26620;SDS011;14253;44.840;10.444;2023-12-22T12:41:25;2.42;;;0.30;;
26620;SDS011;14253;44.840;10.444;2023-12-22T12:44:01;2.28;;;0.30;;
26620;SDS011;14253;44.840;10.444;2023-12-22T12:46:33;1.08;;;0.10;;
26620;SDS011;14253;44.840;10.444;2023-12-22T12:49:03;2.03;;;0.30;;
26620;SDS011;14253;44.840;10.444;2023-12-22T12:51:31;0.63;;;0.22;;
26620;SDS011;14253;44.840;10.444;2023-12-22T12:54:04;3.35;;;0.22;;
26620;SDS011;14253;44.840;10.444;2023-12-22T12:56:41;0.57;;;0.10;;
26620;SDS011;14253;44.840;10.444;2023-12-22T12:59:11;1.35;;;0.20;;
26620;SDS011;14253;44.840;10.444;2023-12-22T13:01:39;0.70;;;0.30;;
26620;SDS011;14253;44.840;10.444;2023-12-22T13:04:06;1.27;;;0.30;;
26620;SDS011;14253;44.840;10.444;2023-12-22T13:06:32;0.70;;;0.45;;
26620;SDS011;14253;44.840;10.444;2023-12-22T13:08:59;3.30;;;0.45;;
26620;SDS011;14253;44.840;10.444;2023-12-22T13:11:25;0.57;;;0.20;;
26620;SDS011;14253;44.840;10.444;2023-12-22T13:13:53;0.75;;;0.15;;
26620;SDS011;14253;44.840;10.444;2023-12-22T13:16:20;0.75;;;0.50;;
26620;SDS011;14253;44.840;10.444;2023-12-22T13:18:47;2.40;;;0.30;;
26620;SDS011;14253;44.840;10.444;2023-12-22T13:21:14;0.45;;;0.20;;
26620;SDS011;14253;44.840;10.444;2023-12-22T13:23:43;0.80;;;0.22;;
26620;SDS011;14253;44.840;10.444;2023-12-22T13:26:18;0.63;;;0.20;;
26620;SDS011;14253;44.840;10.444;2023-12-22T13:28:45;0.68;;;0.20;;
26620;SDS011;14253;44.840;10.444;2023-12-22T13:31:12;0.80;;;0.30;;
26620;SDS011;14253;44.840;10.444;2023-12-22T13:33:43;0.30;;;0.20;;
26620;SDS011;14253;44.840;10.444;2023-12-22T13:36:10;1.42;;;0.20;;
26620;SDS011;14253;44.840;10.444;2023-12-22T13:38:37;0.15;;;0.10;;
26620;SDS011;14253;44.840;10.444;2023-12-22T13:41:03;2.33;;;0.20;;
26620;SDS011;14253;44.840;10.444;2023-12-22T13:43:32;1.20;;;0.20;;
26620;SDS011;14253;44.840;10.444;2023-12-22T13:46:01;0.77;;;0.40;;
26620;SDS011;14253;44.840;10.444;2023-12-22T13:48:29;1.15;;;0.32;;
26620;SDS011;14253;44.840;10.444;2023-12-22T13:50:58;1.65;;;0.30;;
26620;SDS011;14253;44.840;10.444;2023-12-22T13:53:25;1.80;;;0.22;;
26620;SDS011;14253;44.840;10.444;2023-12-22T13:55:55;1.90;;;0.22;;
26620;SDS011;14253;44.840;10.444;2023-12-22T13:58:25;0.73;;;0.20;;
26620;SDS011;14253;44.840;10.444;2023-12-22T14:00:52;0.38;;;0.20;;
26620;SDS011;14253;44.840;10.444;2023-12-22T14:03:18;1.80;;;0.13;;
26620;SDS011;14253;44.840;10.444;2023-12-22T14:05:48;0.57;;;0.15;;
26620;SDS011;14253;44.840;10.444;2023-12-22T14:08:15;1.05;;;0.32;;
26620;SDS011;14253;44.840;10.444;2023-12-22T14:10:47;0.38;;;0.20;;
26620;SDS011;14253;44.840;10.444;2023-12-22T14:13:14;0.40;;;0.20;;
26620;SDS011;14253;44.840;10.444;2023-12-22T14:15:42;1.33;;;0.30;;
26620;SDS011;14253;44.840;10.444;2023-12-22T14:18:09;1.27;;;0.55;;
26620;SDS011;14253;44.840;10.444;2023-12-22T14:20:36;1.77;;;0.57;;
26620;SDS011;14253;44.840;10.444;2023-12-22T14:23:02;3.15;;;0.30;;
26620;SDS011;14253;44.840;10.444;2023-12-22T14:25:29;1.10;;;0.28;;
26620;SDS011;14253;44.840;10.444;2023-12-22T14:27:57;1.27;;;0.40;;
26620;SDS011;14253;44.840;10.444;2023-12-22T14:30:24;1.23;;;0.22;;
26620;SDS011;14253;44.840;10.444;2023-12-22T14:32:50;2.72;;;0.40;;
26620;SDS011;14253;44.840;10.444;2023-12-22T14:35:16;0.57;;;0.30;;
26620;SDS011;14253;44.840;10.444;2023-12-22T14:37:42;1.85;;;0.63;;
26620;SDS011;14253;44.840;10.444;2023-12-22T14:40:08;1.30;;;0.30;;
26620;SDS011;14253;44.840;10.444;2023-12-22T14:42:35;2.50;;;0.55;;
26620;SDS011;14253;44.840;10.444;2023-12-22T14:45:01;1.25;;;0.20;;